createdAt,value
2023-04-13T00:00:01.884Z,122.4
2023-04-13T00:05:01.698Z,127.1
2023-04-13T00:10:01.574Z,128.2
2023-04-13T00:15:01.990Z,114.0
2023-04-13T00:20:01.608Z,106.4
2023-04-13T00:25:01.736Z,121.0
2023-04-13T00:35:01.931Z,70.3
2023-04-13T00:40:02.875Z,50.4
2023-04-13T00:45:06.763Z,51.5
2023-04-13T00:50:01.606Z,37.8
2023-04-13T00:55:02.006Z,27.3
2023-04-13T01:00:06.788Z,44.4
2023-04-13T01:05:06.746Z,62.4
2023-04-13T01:10:06.514Z,66.8
2023-04-13T01:15:11.640Z,87.1
2023-04-13T01:20:01.638Z,106.0
2023-04-13T01:25:02.664Z,97.1
2023-04-13T03:05:06.964Z,35.1
2023-04-13T03:10:02.114Z,26.3
2023-04-13T03:15:02.019Z,18.5
2023-04-13T03:20:01.809Z,18.5
2023-04-13T03:25:02.120Z,10.7
2023-04-13T03:35:02.218Z,5.1
2023-04-13T03:55:02.476Z,4.1
2023-04-13T04:10:02.341Z,4.4
2023-04-13T04:20:05.195Z,8.1
2023-04-13T04:35:02.010Z,7.2
2023-04-13T04:40:02.128Z,5.3
2023-04-13T04:45:02.012Z,2.7
2023-04-13T05:55:01.663Z,6.0
2023-04-13T06:05:01.908Z,12.8
2023-04-13T06:15:01.960Z,18.4
2023-04-13T06:20:01.922Z,15.6
2023-04-13T06:25:01.939Z,38.6
2023-04-13T06:30:02.592Z,56.4
2023-04-13T06:35:02.161Z,80.9
2023-04-13T06:40:01.926Z,103.1
2023-04-13T06:55:01.653Z,122.8
2023-04-13T07:05:01.794Z,135.6
2023-04-13T07:10:01.572Z,133.4
2023-04-13T07:25:02.195Z,162.8
2023-04-13T07:30:01.830Z,167.6
2023-04-13T07:35:02.608Z,176.5
2023-04-13T07:40:07.548Z,183.5
2023-04-13T07:50:01.776Z,178.0
2023-04-13T08:00:01.590Z,140.1
2023-04-13T08:05:02.776Z,144.2
2023-04-13T08:10:01.672Z,142.3
2023-04-13T08:15:01.696Z,141.3
2023-04-13T08:20:01.576Z,143.8
2023-04-13T08:25:01.873Z,181.8
2023-04-13T08:30:01.578Z,180.8
2023-04-13T08:35:02.851Z,185.3
2023-04-13T08:40:06.643Z,191.4
2023-04-13T08:45:01.725Z,165.6
2023-04-13T08:50:01.747Z,160.7
2023-04-13T08:55:01.791Z,159.6
2023-04-13T09:00:01.742Z,152.4
2023-04-13T09:05:02.169Z,144.6
2023-04-13T09:10:01.966Z,175.0
2023-04-13T09:20:01.650Z,175.7
2023-04-13T09:35:01.454Z,164.0
2023-04-13T09:40:01.444Z,168.4
2023-04-13T09:45:01.603Z,166.8
2023-04-13T09:50:01.379Z,165.3
2023-04-13T10:15:02.026Z,174.0
2023-04-13T10:20:01.782Z,176.6
2023-04-13T10:25:02.018Z,176.0
2023-04-13T10:35:01.851Z,169.4
2023-04-13T10:40:01.674Z,164.4
2023-04-13T10:45:01.806Z,142.0
2023-04-13T10:50:01.818Z,124.7
2023-04-13T10:55:02.024Z,102.8
2023-04-13T11:00:02.001Z,84.4
2023-04-13T11:05:02.377Z,66.7
2023-04-13T11:10:07.210Z,65.4
2023-04-13T11:15:01.827Z,59.9
2023-04-13T11:20:01.844Z,58.0
2023-04-13T11:25:01.771Z,62.2
2023-04-13T11:30:02.008Z,63.1
2023-04-13T11:40:01.723Z,61.0
2023-04-13T11:55:24.295Z,59.4
2023-04-13T12:00:02.497Z,61.8
2023-04-13T12:20:07.204Z,74.6
2023-04-13T12:45:01.715Z,48.4
2023-04-13T12:50:01.440Z,49.2
2023-04-13T12:55:01.314Z,51.1
2023-04-13T13:00:02.482Z,54.3
2023-04-13T13:05:01.456Z,52.6
2023-04-13T13:15:01.488Z,58.6
2023-04-13T13:25:01.347Z,70.9
2023-04-13T13:30:01.200Z,76.2
2023-04-13T13:35:01.383Z,74.8
2023-04-13T13:40:01.889Z,71.8
2023-04-13T13:45:02.072Z,66.9
2023-04-13T13:50:01.648Z,55.0
2023-04-13T13:55:01.563Z,54.1
2023-04-13T14:00:01.273Z,54.0
2023-04-13T14:05:02.029Z,59.3
2023-04-13T14:10:01.466Z,65.2
2023-04-13T14:15:01.540Z,71.4
2023-04-13T14:20:01.217Z,71.5
2023-04-13T14:25:07.671Z,73.2
2023-04-13T14:35:01.721Z,71.4
2023-04-13T14:40:06.306Z,67.3
2023-04-13T14:45:01.881Z,66.4
2023-04-13T14:50:07.337Z,67.8
2023-04-13T14:55:01.381Z,67.2
2023-04-13T15:05:01.931Z,71.5
2023-04-13T15:10:01.420Z,72.0
2023-04-13T15:20:01.342Z,68.7
2023-04-13T15:30:01.712Z,64.1
2023-04-13T15:35:01.838Z,64.4
2023-04-13T15:40:01.812Z,65.3
2023-04-13T15:45:01.310Z,63.7
2023-04-13T15:50:01.433Z,63.2
2023-04-13T15:55:01.294Z,63.2
2023-04-13T16:00:01.651Z,60.7
2023-04-13T16:05:01.356Z,58.3
2023-04-13T16:20:01.416Z,55.9
2023-04-13T16:25:06.390Z,56.4
2023-04-13T16:35:02.572Z,57.2
2023-04-13T16:45:01.345Z,63.3
2023-04-13T16:55:01.629Z,61.9
2023-04-13T17:10:06.288Z,53.9
2023-04-13T17:15:01.952Z,53.4
2023-04-13T17:20:01.177Z,54.4
2023-04-13T17:40:01.325Z,55.8
2023-04-13T17:55:01.361Z,58.3
2023-04-13T18:00:02.319Z,57.6
2023-04-13T18:05:02.778Z,57.0
2023-04-13T18:10:01.357Z,55.0
2023-04-13T18:15:01.410Z,53.9
2023-04-13T18:20:01.295Z,55.0
2023-04-13T18:25:01.318Z,55.5
2023-04-13T18:30:06.346Z,55.6
2023-04-13T18:35:01.365Z,58.9
2023-04-13T18:40:01.228Z,61.3
2023-04-13T18:45:01.432Z,65.5
2023-04-13T18:50:01.320Z,70.4
2023-04-13T18:55:01.292Z,74.6
2023-04-13T19:00:01.447Z,77.9
2023-04-13T19:05:01.788Z,84.1
2023-04-13T19:10:01.431Z,81.6
2023-04-13T19:25:01.372Z,77.7
2023-04-13T19:35:01.445Z,74.8
2023-04-13T19:40:01.258Z,77.1
2023-04-13T19:45:01.392Z,81.7
2023-04-13T19:55:01.522Z,87.1
2023-04-13T20:00:01.298Z,90.4
2023-04-13T20:05:01.346Z,91.0
2023-04-13T20:10:01.212Z,89.2
2023-04-13T20:15:01.731Z,89.0
2023-04-13T20:20:01.319Z,87.5
2023-04-13T20:25:01.378Z,83.6
2023-04-13T20:30:01.383Z,80.3
2023-04-13T20:35:01.359Z,77.9
2023-04-13T20:40:01.203Z,76.4
2023-04-13T20:45:01.261Z,72.7
2023-04-13T20:50:01.245Z,73.1
2023-04-13T20:55:01.308Z,73.8
2023-04-13T21:00:01.284Z,77.2
2023-04-13T21:05:01.747Z,78.3
2023-04-13T21:10:01.289Z,86.8
2023-04-13T21:15:01.345Z,88.8
2023-04-13T21:20:01.257Z,108.3
2023-04-13T21:25:06.344Z,106.8
2023-04-13T21:30:01.295Z,105.4
2023-04-13T21:35:01.355Z,100.4
2023-04-13T21:40:01.492Z,100.8
2023-04-13T21:50:01.215Z,94.6
2023-04-13T21:55:01.298Z,103.8
2023-04-13T22:00:01.186Z,110.1
2023-04-13T22:05:01.338Z,119.1
2023-04-13T22:10:01.135Z,117.0
2023-04-13T22:15:01.468Z,115.6
2023-04-13T22:20:01.321Z,111.2
2023-04-13T22:25:01.574Z,107.7
2023-04-13T22:30:01.207Z,102.3
2023-04-13T22:35:01.219Z,96.7
2023-04-13T22:40:01.201Z,90.4
2023-04-13T22:45:06.305Z,78.0
2023-04-13T22:50:01.228Z,61.0
2023-04-13T22:55:04.846Z,43.6
2023-04-13T23:00:01.206Z,30.0
2023-04-13T23:05:06.583Z,22.2
2023-04-13T23:10:01.530Z,24.8
2023-04-13T23:15:01.310Z,24.3
2023-04-13T23:20:01.216Z,21.0
2023-04-13T23:25:01.284Z,20.4
2023-04-13T23:30:01.230Z,13.6
2023-04-13T23:55:01.478Z,9.0
